createdAt,value
2018-05-14T00:01:28.256Z,108.00
2018-05-14T00:03:56.568Z,107.93
2018-05-14T00:06:24.928Z,105.07
2018-05-14T00:08:53.228Z,107.23
2018-05-14T00:11:21.547Z,108.03
2018-05-14T00:13:49.861Z,107.60
2018-05-14T00:16:18.171Z,116.87
2018-05-14T00:18:46.476Z,117.30
2018-05-14T00:21:15.568Z,99.67
2018-05-14T00:23:44.683Z,108.13
2018-05-14T00:26:13.002Z,111.07
2018-05-14T00:28:41.319Z,115.73
2018-05-14T00:31:09.627Z,112.63
2018-05-14T00:33:37.943Z,116.67
2018-05-14T00:36:06.251Z,114.13
2018-05-14T00:38:34.566Z,129.10
2018-05-14T00:41:03.640Z,116.97
2018-05-14T00:43:31.960Z,122.33
2018-05-14T00:46:00.256Z,123.03
2018-05-14T00:48:28.587Z,118.67
2018-05-14T00:50:56.911Z,117.23
2018-05-14T00:53:25.245Z,122.70
2018-05-14T00:55:53.543Z,105.30
2018-05-14T00:58:21.856Z,102.37
2018-05-14T01:00:50.208Z,96.27
2018-05-14T01:03:18.520Z,99.77
2018-05-14T01:05:46.827Z,88.97
2018-05-14T01:08:15.134Z,72.53
2018-05-14T01:10:43.451Z,77.40
2018-05-14T01:13:12.519Z,88.80
2018-05-14T01:15:41.259Z,73.23
2018-05-14T01:18:09.572Z,71.57
2018-05-14T01:20:37.872Z,68.07
2018-05-14T01:23:05.866Z,77.80
2018-05-14T01:25:34.157Z,88.83
2018-05-14T01:28:02.554Z,87.10
2018-05-14T01:30:30.673Z,95.50
2018-05-14T01:32:58.982Z,88.93
2018-05-14T01:35:27.287Z,92.33
2018-05-14T01:37:55.599Z,88.20
2018-05-14T01:40:23.925Z,91.23
2018-05-14T01:42:52.223Z,93.07
2018-05-14T01:45:20.519Z,92.13
2018-05-14T01:47:48.926Z,88.57
2018-05-14T01:50:17.352Z,81.60
2018-05-14T01:52:45.642Z,91.83
2018-05-14T01:55:13.959Z,80.27
2018-05-14T01:57:42.279Z,88.97
2018-05-14T02:00:10.621Z,95.53
2018-05-14T02:02:38.929Z,103.27
2018-05-14T02:05:07.240Z,93.70
2018-05-14T02:07:35.542Z,112.37
2018-05-14T02:10:03.630Z,116.17
2018-05-14T02:12:31.956Z,120.97
2018-05-14T02:15:00.253Z,121.93
2018-05-14T02:17:28.575Z,127.27
2018-05-14T02:19:57.659Z,142.83
2018-05-14T02:22:25.991Z,127.47
2018-05-14T02:24:54.287Z,170.97
2018-05-14T02:27:22.930Z,197.17
2018-05-14T02:29:52.000Z,223.40
2018-05-14T02:32:20.330Z,199.97
2018-05-14T02:34:48.655Z,211.33
2018-05-14T02:37:16.986Z,217.30
2018-05-14T02:39:45.488Z,224.53
2018-05-14T02:42:13.791Z,289.83
2018-05-14T02:44:42.106Z,237.57
2018-05-14T02:47:10.524Z,246.07
2018-05-14T02:49:38.848Z,242.17
2018-05-14T02:52:07.173Z,264.53
2018-05-14T02:54:36.287Z,298.07
2018-05-14T02:57:04.018Z,214.50
2018-05-14T02:59:32.404Z,328.47
2018-05-14T03:02:00.861Z,215.67
2018-05-14T03:04:29.364Z,219.93
2018-05-14T03:06:57.670Z,178.13
2018-05-14T03:09:25.994Z,211.37
2018-05-14T03:11:54.328Z,209.77
2018-05-14T03:14:22.674Z,215.37
2018-05-14T03:16:50.996Z,234.80
2018-05-14T03:19:20.105Z,241.73
2018-05-14T03:21:48.428Z,247.47
2018-05-14T03:24:16.732Z,170.80
2018-05-14T03:26:45.050Z,237.00
2018-05-14T03:29:14.128Z,276.10
2018-05-14T03:31:42.446Z,237.67
2018-05-14T03:34:11.534Z,246.30
2018-05-14T03:36:40.623Z,265.13
2018-05-14T03:39:09.735Z,280.77
2018-05-14T03:41:38.057Z,186.90
2018-05-14T03:44:06.371Z,261.20
2018-05-14T03:46:34.692Z,246.20
2018-05-14T03:49:02.988Z,214.13
2018-05-14T03:51:31.314Z,270.57
2018-05-14T03:53:59.644Z,237.03
2018-05-14T03:56:28.898Z,269.67
2018-05-14T03:59:08.506Z,239.50
2018-05-14T04:01:48.086Z,205.90
2018-05-14T04:04:27.531Z,217.03
2018-05-14T04:06:55.834Z,256.67
2018-05-14T04:09:24.146Z,255.97
2018-05-14T04:11:52.453Z,233.00
2018-05-14T04:14:20.782Z,233.30
2018-05-14T04:16:49.881Z,237.40
2018-05-14T04:19:18.205Z,333.83
2018-05-14T04:21:46.520Z,260.07
2018-05-14T04:24:15.052Z,265.50
2018-05-14T04:26:43.548Z,251.80
2018-05-14T04:29:11.847Z,280.77
2018-05-14T04:31:40.169Z,237.63
2018-05-14T04:34:08.489Z,234.60
2018-05-14T04:36:36.811Z,255.10
2018-05-14T04:39:04.568Z,280.53
2018-05-14T04:41:32.883Z,266.37
2018-05-14T04:44:01.972Z,293.67
2018-05-14T04:46:31.068Z,263.50
2018-05-14T04:48:59.399Z,240.30
2018-05-14T04:51:27.702Z,276.43
2018-05-14T04:53:56.036Z,246.13
2018-05-14T04:56:25.098Z,262.77
2018-05-14T04:58:53.417Z,247.87
2018-05-14T05:01:21.739Z,256.77
2018-05-14T05:03:49.846Z,266.93
2018-05-14T05:06:18.167Z,237.27
2018-05-14T05:08:46.472Z,275.73
2018-05-14T05:11:14.799Z,290.33
2018-05-14T05:13:43.311Z,239.57
2018-05-14T05:16:11.642Z,232.80
2018-05-14T05:18:39.965Z,226.20
2018-05-14T05:21:11.471Z,216.93
2018-05-14T05:23:39.825Z,218.63
2018-05-14T05:26:08.153Z,200.47
2018-05-14T05:28:40.077Z,193.87
2018-05-14T05:31:08.438Z,188.37
2018-05-14T05:33:36.750Z,182.07
2018-05-14T05:36:04.751Z,193.37
2018-05-14T05:38:32.739Z,174.10
2018-05-14T05:41:01.073Z,185.57
2018-05-14T05:43:29.391Z,145.10
2018-05-14T05:45:57.727Z,136.03
2018-05-14T05:48:27.025Z,111.27
2018-05-14T05:50:55.348Z,102.50
2018-05-14T05:53:23.660Z,95.70
2018-05-14T05:55:51.970Z,102.77
2018-05-14T05:58:21.064Z,86.83
2018-05-14T06:00:49.402Z,86.80
2018-05-14T06:03:17.719Z,92.00
2018-05-14T06:05:46.793Z,93.80
2018-05-14T06:08:15.097Z,101.50
2018-05-14T06:10:43.450Z,94.57
2018-05-14T06:13:11.781Z,91.37
2018-05-14T06:15:50.179Z,95.20
2018-05-14T06:18:19.262Z,95.90
2018-05-14T06:20:50.726Z,103.23
2018-05-14T06:23:19.022Z,92.33
2018-05-14T06:25:48.102Z,84.40
2018-05-14T06:28:16.453Z,80.93
2018-05-14T06:30:44.768Z,74.63
2018-05-14T06:33:13.084Z,73.50
2018-05-14T06:35:41.557Z,81.83
2018-05-14T06:38:09.901Z,74.73
2018-05-14T06:40:38.227Z,67.43
2018-05-14T06:43:09.797Z,68.83
2018-05-14T06:45:38.105Z,69.50
2018-05-14T06:48:06.592Z,63.30
2018-05-14T06:50:34.912Z,63.90
2018-05-14T06:53:06.369Z,67.03
2018-05-14T06:55:38.330Z,63.07
2018-05-14T06:58:15.812Z,60.67
2018-05-14T07:00:44.140Z,59.93
2018-05-14T07:03:12.528Z,61.87
2018-05-14T07:05:41.811Z,60.03
2018-05-14T07:08:10.318Z,59.60
2018-05-14T07:10:41.703Z,55.33
2018-05-14T07:13:10.041Z,63.00
2018-05-14T07:15:38.353Z,59.77
2018-05-14T07:18:06.660Z,52.00
2018-05-14T07:20:34.976Z,46.13
2018-05-14T07:23:03.328Z,51.13
2018-05-14T07:25:31.655Z,47.70
2018-05-14T07:27:59.971Z,50.83
2018-05-14T07:30:29.757Z,46.60
2018-05-14T07:32:58.075Z,51.27
2018-05-14T07:35:26.371Z,47.07
2018-05-14T07:37:54.671Z,45.83
2018-05-14T07:40:23.014Z,50.40
2018-05-14T07:42:51.516Z,53.57
2018-05-14T07:45:20.073Z,50.43
2018-05-14T07:47:48.345Z,49.00
2018-05-14T07:50:16.685Z,51.23
2018-05-14T07:52:45.005Z,49.87
2018-05-14T07:55:13.311Z,46.17
2018-05-14T07:57:41.644Z,47.77
2018-05-14T08:00:09.617Z,47.50
2018-05-14T08:02:37.956Z,47.23
2018-05-14T08:05:06.349Z,44.77
2018-05-14T08:07:38.026Z,43.33
2018-05-14T08:10:06.329Z,43.60
2018-05-14T08:15:09.796Z,35.47
2018-05-14T08:17:48.033Z,36.63
2018-05-14T08:20:16.367Z,40.77
2018-05-14T08:22:44.686Z,37.40
2018-05-14T08:25:13.019Z,38.60
2018-05-14T08:27:41.325Z,39.40
2018-05-14T08:30:18.741Z,37.63
2018-05-14T08:32:47.085Z,40.33
2018-05-14T08:35:15.431Z,39.20
2018-05-14T08:37:43.772Z,38.37
2018-05-14T08:40:12.093Z,33.97
2018-05-14T08:42:41.206Z,39.93
2018-05-14T08:45:09.532Z,42.57
2018-05-14T08:47:37.835Z,41.83
2018-05-14T08:50:06.163Z,42.67
2018-05-14T08:52:34.493Z,39.40
2018-05-14T08:58:02.715Z,36.50
2018-05-14T09:00:31.028Z,34.10
2018-05-14T09:02:59.356Z,32.83
2018-05-14T09:05:27.695Z,36.73
2018-05-14T09:07:56.034Z,33.03
2018-05-14T09:10:25.113Z,35.63
2018-05-14T09:12:53.425Z,32.47
2018-05-14T09:15:21.749Z,30.97
2018-05-14T09:17:50.070Z,37.57
2018-05-14T09:20:25.632Z,30.67
2018-05-14T09:22:54.528Z,31.42
2018-05-14T09:25:22.897Z,31.67
2018-05-14T09:27:51.795Z,26.90
2018-05-14T09:30:20.681Z,25.35
2018-05-14T09:32:49.577Z,24.98
2018-05-14T09:35:18.220Z,26.12
2018-05-14T09:37:47.108Z,26.58
2018-05-14T09:40:16.755Z,22.17
2018-05-14T09:42:45.667Z,24.37
2018-05-14T09:45:14.535Z,26.02
2018-05-14T09:47:43.622Z,23.83
2018-05-14T09:50:12.526Z,22.60
2018-05-14T09:52:41.403Z,20.12
2018-05-14T09:55:10.336Z,20.80
2018-05-14T10:00:37.856Z,19.10
2018-05-14T10:03:06.766Z,20.25
2018-05-14T10:05:35.666Z,21.33
2018-05-14T10:08:04.573Z,22.70
2018-05-14T10:10:33.471Z,18.27
2018-05-14T10:13:02.436Z,22.17
2018-05-14T10:15:31.464Z,18.73
2018-05-14T10:18:00.343Z,16.25
2018-05-14T10:20:30.033Z,14.48
2018-05-14T10:22:58.927Z,14.15
2018-05-14T10:25:27.794Z,15.57
2018-05-14T10:27:56.739Z,13.10
2018-05-14T10:30:25.622Z,15.98
2018-05-14T10:32:54.527Z,13.65
2018-05-14T10:35:23.416Z,14.32
2018-05-14T10:37:52.335Z,13.93
2018-05-14T10:40:21.244Z,13.75
2018-05-14T10:42:50.139Z,11.43
2018-05-14T10:45:22.040Z,13.13
2018-05-14T10:47:50.901Z,13.50
2018-05-14T10:50:19.782Z,11.70
2018-05-14T10:52:48.471Z,11.40
2018-05-14T10:55:17.535Z,9.80
2018-05-14T10:57:46.426Z,7.37
2018-05-14T11:00:15.305Z,9.35
2018-05-14T11:02:44.186Z,8.60
2018-05-14T11:05:13.080Z,9.85
2018-05-14T11:07:41.960Z,13.30
2018-05-14T11:10:11.622Z,9.82
2018-05-14T11:12:40.475Z,9.35
2018-05-14T11:15:09.349Z,6.53
2018-05-14T11:17:38.974Z,6.45
2018-05-14T11:20:07.843Z,9.73
2018-05-14T11:34:11.061Z,11.07
2018-05-14T11:36:39.974Z,7.80
2018-05-14T11:39:09.028Z,9.50
2018-05-14T11:41:37.908Z,10.23
2018-05-14T11:44:06.791Z,10.95
2018-05-14T11:46:35.663Z,12.63
2018-05-14T11:49:04.551Z,12.05
2018-05-14T11:51:33.439Z,13.57
2018-05-14T11:54:02.333Z,15.57
2018-05-14T12:02:18.827Z,12.73
2018-05-14T12:04:47.705Z,13.50
2018-05-14T12:07:16.597Z,12.55
2018-05-14T12:09:45.477Z,13.07
2018-05-14T12:12:14.389Z,19.27
2018-05-14T12:14:44.265Z,14.48
2018-05-14T12:17:13.944Z,15.02
2018-05-14T12:19:42.831Z,16.08
2018-05-14T12:39:34.006Z,17.87
2018-05-14T12:42:02.899Z,17.77
2018-05-14T12:44:31.793Z,17.98
2018-05-14T12:47:00.704Z,19.58
2018-05-14T12:49:29.372Z,16.23
2018-05-14T12:51:59.083Z,18.33
2018-05-14T12:57:03.538Z,18.67
2018-05-14T13:19:30.918Z,13.07
2018-05-14T13:21:59.813Z,14.43
2018-05-14T13:24:28.732Z,16.35
2018-05-14T13:26:57.820Z,14.48
2018-05-14T13:29:26.735Z,12.55
2018-05-14T13:31:55.623Z,12.30
2018-05-14T13:34:24.542Z,12.30
2018-05-14T13:36:53.449Z,12.50
2018-05-14T13:39:23.088Z,11.77
2018-05-14T13:59:12.916Z,11.48
2018-05-14T14:01:41.789Z,8.35
2018-05-14T14:04:11.465Z,10.45
2018-05-14T14:06:41.159Z,10.30
2018-05-14T14:09:10.057Z,8.65
2018-05-14T14:11:38.935Z,9.18
2018-05-14T14:14:07.868Z,8.40
2018-05-14T14:16:36.749Z,9.80
2018-05-14T14:19:06.225Z,9.63
2018-05-14T14:38:56.866Z,10.33
2018-05-14T14:41:25.449Z,8.10
2018-05-14T14:43:54.051Z,8.50
2018-05-14T14:46:22.674Z,8.43
2018-05-14T14:48:51.278Z,7.73
2018-05-14T14:51:19.880Z,5.70
2018-05-14T14:53:48.482Z,6.73
2018-05-14T14:56:17.083Z,6.77
2018-05-14T14:58:45.683Z,6.03
2018-05-14T15:12:46.680Z,6.03
2018-05-14T15:15:15.276Z,6.63
2018-05-14T15:17:43.896Z,6.33
2018-05-14T15:20:12.569Z,5.80
2018-05-14T15:22:41.288Z,7.30
2018-05-14T15:25:10.691Z,6.17
2018-05-14T15:27:39.296Z,7.20
2018-05-14T15:30:07.559Z,5.73
2018-05-14T15:47:02.715Z,5.27
2018-05-14T15:49:31.316Z,10.00
2018-05-14T15:51:59.916Z,5.17
2018-05-14T15:54:28.556Z,6.20
2018-05-14T15:56:57.154Z,4.47
2018-05-14T15:59:26.764Z,7.57
2018-05-14T16:01:55.400Z,4.30
2018-05-14T16:04:24.158Z,5.97
2018-05-14T16:06:52.753Z,4.13
2018-05-14T16:26:38.820Z,4.13
2018-05-14T16:29:07.252Z,6.40
2018-05-14T16:31:35.838Z,4.00
2018-05-14T16:34:04.446Z,5.67
2018-05-14T16:36:33.041Z,4.97
2018-05-14T16:39:01.648Z,5.17
2018-05-14T16:41:30.256Z,4.17
2018-05-14T16:43:58.655Z,4.83
2018-05-14T16:46:26.913Z,6.97
2018-05-14T16:49:01.662Z,4.07
2018-05-14T16:51:30.288Z,5.93
2018-05-14T16:53:58.886Z,3.37
2018-05-14T16:56:27.143Z,6.90
2018-05-14T16:58:55.740Z,4.47
2018-05-14T17:01:24.335Z,4.47
2018-05-14T17:03:52.948Z,4.50
2018-05-14T17:06:21.314Z,5.32
2018-05-14T17:08:49.924Z,4.93
2018-05-14T17:51:53.596Z,17.27
2018-05-14T17:54:22.512Z,16.40
2018-05-14T17:56:51.418Z,23.20
2018-05-14T17:59:20.354Z,18.98
2018-05-14T18:01:49.150Z,22.40
2018-05-14T18:04:18.056Z,17.70
2018-05-14T18:06:47.031Z,18.52
2018-05-14T18:09:15.925Z,21.65
2018-05-14T18:11:44.853Z,22.17
2018-05-14T18:14:13.754Z,18.83
2018-05-14T18:16:42.674Z,19.58
2018-05-14T18:19:12.391Z,18.52
2018-05-14T18:21:44.921Z,20.88
2018-05-14T18:24:13.887Z,20.58
2018-05-14T18:26:46.547Z,18.92
2018-05-14T18:29:21.554Z,20.60
2018-05-14T18:40:37.374Z,18.73
2018-05-14T18:43:06.292Z,20.33
2018-05-14T18:45:35.995Z,20.70
2018-05-14T18:48:05.731Z,23.67
2018-05-14T18:50:34.655Z,19.20
2018-05-14T18:53:03.558Z,19.87
2018-05-14T18:55:32.466Z,19.30
2018-05-14T18:58:01.390Z,17.95
2018-05-14T19:00:30.344Z,17.48
2018-05-14T19:02:59.269Z,21.00
2018-05-14T19:05:27.602Z,20.15
2018-05-14T19:07:56.709Z,19.48
2018-05-14T19:10:30.532Z,20.13
2018-05-14T19:12:59.434Z,20.42
2018-05-14T19:15:33.686Z,17.10
2018-05-14T19:18:02.580Z,20.23
2018-05-14T19:20:31.477Z,18.48
2018-05-14T19:25:54.031Z,17.77
2018-05-14T19:28:28.432Z,16.52
2018-05-14T19:30:57.345Z,15.63
2018-05-14T19:33:31.741Z,15.27
2018-05-14T19:36:01.263Z,13.68
2018-05-14T19:38:30.298Z,13.77
2018-05-14T19:40:59.201Z,19.27
2018-05-14T19:43:27.516Z,11.63
2018-05-14T19:46:02.035Z,14.85
2018-05-14T19:48:30.349Z,13.73
2018-05-14T19:50:59.270Z,12.05
2018-05-14T19:53:28.373Z,12.95
2018-05-14T19:55:56.716Z,13.13
2018-05-14T19:58:25.049Z,11.73
2018-05-14T20:00:53.424Z,12.43
2018-05-14T20:03:21.905Z,14.23
2018-05-14T20:05:50.310Z,12.20
2018-05-14T20:08:18.656Z,14.80
2018-05-14T20:10:46.997Z,14.00
2018-05-14T20:13:15.351Z,13.07
2018-05-14T20:15:43.740Z,12.07
2018-05-14T20:18:12.095Z,14.83
2018-05-14T20:20:40.433Z,14.60
2018-05-14T20:26:02.219Z,14.83
2018-05-14T20:28:30.567Z,15.53
2018-05-14T20:30:58.917Z,15.00
2018-05-14T20:33:27.253Z,14.40
2018-05-14T20:35:55.591Z,13.30
2018-05-14T20:38:23.918Z,18.40
2018-05-14T20:40:52.278Z,17.30
2018-05-14T20:43:20.601Z,16.00
2018-05-14T20:45:48.929Z,17.77
2018-05-14T20:48:18.027Z,17.47
2018-05-14T20:50:46.383Z,16.30
2018-05-14T20:53:14.762Z,16.23
2018-05-14T20:55:43.125Z,14.83
2018-05-14T20:58:11.450Z,16.37
2018-05-14T21:00:39.781Z,16.70
2018-05-14T21:03:08.095Z,16.80
2018-05-14T21:05:36.515Z,19.10
2018-05-14T21:08:04.663Z,16.67
2018-05-14T21:10:33.010Z,17.87
2018-05-14T21:13:01.344Z,17.27
2018-05-14T21:15:29.667Z,19.00
2018-05-14T21:17:57.986Z,17.73
2018-05-14T21:20:26.333Z,17.13
2018-05-14T21:25:54.145Z,18.33
2018-05-14T21:28:23.242Z,19.80
2018-05-14T21:30:51.595Z,20.57
2018-05-14T21:33:20.013Z,21.10
2018-05-14T21:35:48.460Z,19.03
2018-05-14T21:38:16.950Z,22.10
2018-05-14T21:40:45.468Z,18.40
2018-05-14T21:43:13.886Z,21.13
2018-05-14T21:45:42.230Z,20.80
2018-05-14T21:48:10.810Z,18.67
2018-05-14T21:50:39.126Z,19.97
2018-05-14T21:53:07.474Z,20.60
2018-05-14T21:55:35.810Z,21.27
2018-05-14T21:58:04.811Z,20.23
2018-05-14T22:00:33.602Z,19.07
2018-05-14T22:03:03.968Z,18.63
2018-05-14T22:05:32.322Z,20.83
2018-05-14T22:08:01.433Z,18.80
2018-05-14T22:10:29.783Z,23.77
2018-05-14T22:12:58.178Z,20.53
2018-05-14T22:15:26.526Z,23.17
2018-05-14T22:17:54.882Z,22.10
2018-05-14T22:20:23.289Z,22.03
2018-05-14T22:22:51.765Z,24.60
2018-05-14T22:25:20.248Z,25.70
2018-05-14T22:27:48.556Z,24.40
2018-05-14T22:30:16.874Z,23.87
2018-05-14T22:32:45.206Z,30.67
2018-05-14T22:35:13.546Z,26.07
2018-05-14T22:37:41.856Z,27.07
2018-05-14T22:40:10.232Z,26.73
2018-05-14T22:42:38.555Z,28.13
2018-05-14T22:45:06.881Z,24.93
2018-05-14T22:47:36.908Z,23.77
2018-05-14T22:50:04.896Z,27.37
2018-05-14T22:52:33.231Z,25.10
2018-05-14T22:55:01.538Z,27.73
2018-05-14T22:57:29.935Z,26.20
2018-05-14T22:59:59.148Z,30.33
2018-05-14T23:02:27.676Z,26.00
2018-05-14T23:04:56.025Z,24.33
2018-05-14T23:07:24.342Z,28.60
2018-05-14T23:12:45.182Z,28.67
2018-05-14T23:15:13.505Z,26.37
2018-05-14T23:17:41.861Z,28.20
2018-05-14T23:20:10.173Z,29.40
2018-05-14T23:22:41.893Z,27.37
2018-05-14T23:25:10.446Z,31.07
2018-05-14T23:27:38.763Z,25.47
2018-05-14T23:30:07.092Z,29.33
2018-05-14T23:32:36.981Z,30.00
2018-05-14T23:35:05.303Z,29.73
2018-05-14T23:37:33.612Z,28.30
2018-05-14T23:40:01.934Z,28.03
2018-05-14T23:42:30.266Z,27.13
2018-05-14T23:44:58.584Z,25.77
2018-05-14T23:47:26.912Z,30.90
2018-05-14T23:49:56.864Z,26.50
2018-05-14T23:52:25.193Z,26.67
2018-05-14T23:54:54.885Z,26.70
2018-05-14T23:57:23.204Z,26.63
2018-05-14T23:59:51.521Z,28.97
